Time;durP1;ratioP1;P1;durP2;ratioP2;P2;SDS_P1;SDS_P2;PMS_P1;PMS_P2;Temp;Humidity;BMP_temperature;BMP_pressure;BME280_temperature;BME280_humidity;BME280_pressure;Samples;Min_cycle;Max_cycle;Signal;HPM_P1;HPM_P2
2023/04/04 00:01:39;;;;;;;3.27;1.77;;;0.30;99.90;;;;;;5039189;28;20195;-85
2023/04/04 00:04:05;;;;;;;2.80;1.60;;;0.20;99.90;;;;;;5039518;28;20279;-85
2023/04/04 00:06:31;;;;;;;4.03;1.60;;;0.20;99.90;;;;;;5057429;28;20624;-85
2023/04/04 00:08:56;;;;;;;1.80;1.10;;;0.20;99.90;;;;;;5039119;28;20204;-85
2023/04/04 00:11:22;;;;;;;1.93;1.30;;;0.10;99.90;;;;;;5039078;28;20184;-85
2023/04/04 00:13:49;;;;;;;2.23;1.17;;;0.20;99.90;;;;;;5057049;28;20604;-84
2023/04/04 00:16:15;;;;;;;2.07;1.33;;;0.10;99.90;;;;;;5039127;28;20560;-84
2023/04/04 00:18:40;;;;;;;4.87;1.37;;;0.10;99.90;;;;;;5039296;28;20178;-85
2023/04/04 00:21:06;;;;;;;3.83;1.30;;;0.10;99.90;;;;;;5038788;28;20192;-85
2023/04/04 00:23:32;;;;;;;2.20;1.40;;;0.00;99.90;;;;;;5039052;28;20219;-85
2023/04/04 00:25:58;;;;;;;2.63;1.27;;;0.00;99.90;;;;;;5039120;28;20181;-85
2023/04/04 00:28:23;;;;;;;3.47;1.63;;;0.10;99.90;;;;;;5056409;28;20225;-85
2023/04/04 00:30:49;;;;;;;8.23;3.67;;;0.00;99.90;;;;;;5038862;28;20178;-85
2023/04/04 00:35:50;;;;;;;3.67;1.53;;;0.10;99.90;;;;;;5104286;22;20673;-84
2023/04/04 00:38:16;;;;;;;2.97;1.40;;;0.10;99.90;;;;;;5058465;28;20208;-84
2023/04/04 00:40:44;;;;;;;3.60;1.40;;;0.10;99.90;;;;;;5076075;28;20762;-85
2023/04/04 00:43:10;;;;;;;3.27;1.40;;;0.10;99.90;;;;;;5058639;28;20183;-84
2023/04/04 00:45:36;;;;;;;2.43;1.27;;;0.10;99.90;;;;;;5076268;28;20519;-84
2023/04/04 00:48:02;;;;;;;4.07;1.60;;;0.00;99.90;;;;;;5076369;28;20167;-85
2023/04/04 00:50:28;;;;;;;4.07;1.57;;;0.00;99.90;;;;;;5075857;28;20623;-84
2023/04/04 00:52:54;;;;;;;5.50;1.53;;;0.00;99.90;;;;;;5075978;28;20218;-83
2023/04/04 00:55:19;;;;;;;5.37;1.50;;;0.00;99.90;;;;;;5076007;28;20232;-84
2023/04/04 00:57:45;;;;;;;3.10;1.30;;;0.00;99.90;;;;;;5058176;28;20606;-84
2023/04/04 01:00:14;;;;;;;3.73;1.50;;;-0.10;99.90;;;;;;5075823;28;20227;-82
2023/04/04 01:02:39;;;;;;;1.80;1.20;;;-0.10;99.90;;;;;;5058040;28;20573;-84
2023/04/04 01:05:06;;;;;;;3.53;1.10;;;-0.10;99.90;;;;;;5062649;28;20281;-83
2023/04/04 01:07:34;;;;;;;3.33;1.57;;;-0.20;99.90;;;;;;5037704;28;20244;-84
2023/04/04 01:10:02;;;;;;;2.67;1.20;;;-0.30;99.90;;;;;;5038232;28;20273;-85
2023/04/04 01:12:29;;;;;;;2.27;1.20;;;-0.30;99.90;;;;;;5055806;28;20200;-85
2023/04/04 01:14:55;;;;;;;4.37;1.50;;;-0.30;99.90;;;;;;5056026;28;20183;-85
2023/04/04 01:17:21;;;;;;;4.37;1.37;;;-0.40;99.90;;;;;;5038185;28;20184;-85
2023/04/04 01:20:15;;;;;;;3.17;1.23;;;-0.40;99.90;;;;;;5055715;28;20167;-85
2023/04/04 01:22:44;;;;;;;6.33;1.70;;;-0.50;99.90;;;;;;5034957;28;20190;-85
2023/04/04 01:25:10;;;;;;;7.03;1.43;;;-0.40;99.90;;;;;;5055778;28;20174;-85
2023/04/04 01:27:37;;;;;;;4.73;1.50;;;-0.40;99.90;;;;;;5055774;28;20178;-85
2023/04/04 01:30:05;;;;;;;3.07;1.17;;;-0.40;99.90;;;;;;5037852;28;20188;-84
2023/04/04 01:32:52;;;;;;;6.77;1.37;;;-0.30;99.90;;;;;;5055210;28;20274;-86
2023/04/04 01:35:32;;;;;;;2.43;1.37;;;-0.30;99.90;;;;;;5055159;28;20308;-85
2023/04/04 01:38:06;;;;;;;5.77;1.53;;;-0.40;99.90;;;;;;5038204;28;20196;-85
2023/04/04 01:40:36;;;;;;;4.73;1.77;;;-0.30;99.90;;;;;;5055389;28;20703;-84
2023/04/04 01:43:02;;;;;;;2.90;1.40;;;-0.40;99.90;;;;;;5055522;28;20187;-85
2023/04/04 01:45:29;;;;;;;2.63;1.57;;;-0.50;99.90;;;;;;5055292;28;20174;-85
2023/04/04 01:47:58;;;;;;;1.93;1.40;;;-0.50;99.90;;;;;;5037633;28;20261;-86
2023/04/04 01:50:24;;;;;;;2.80;1.77;;;-0.50;99.90;;;;;;5055105;28;20213;-85
2023/04/04 01:52:50;;;;;;;4.03;1.40;;;-0.50;99.90;;;;;;5055378;28;20244;-84
2023/04/04 01:55:16;;;;;;;5.27;1.60;;;-0.60;99.90;;;;;;5055046;28;20604;-86
2023/04/04 01:57:42;;;;;;;2.83;1.27;;;-0.60;99.90;;;;;;5055153;28;20284;-85
2023/04/04 02:00:08;;;;;;;4.23;1.50;;;-0.60;99.90;;;;;;5055295;28;20178;-86
2023/04/04 02:02:33;;;;;;;4.17;1.67;;;-0.60;99.90;;;;;;5037121;28;20184;-85
2023/04/04 02:04:59;;;;;;;3.57;1.40;;;-0.60;99.90;;;;;;5054987;28;20243;-85
2023/04/04 02:07:25;;;;;;;2.80;1.33;;;-0.60;99.90;;;;;;5037209;28;20182;-86
2023/04/04 02:09:52;;;;;;;5.00;1.50;;;-0.60;99.90;;;;;;5054779;28;20245;-85
2023/04/04 02:12:17;;;;;;;2.10;1.23;;;-0.60;99.90;;;;;;5055030;28;20201;-86
2023/04/04 02:14:44;;;;;;;2.00;1.30;;;-0.60;99.90;;;;;;5054869;28;20208;-86
2023/04/04 02:17:11;;;;;;;4.70;1.50;;;-0.60;99.90;;;;;;5037131;28;20214;-86
2023/04/04 02:19:38;;;;;;;4.77;1.30;;;-0.80;99.90;;;;;;5036820;28;20182;-86
2023/04/04 02:22:03;;;;;;;1.87;1.30;;;-0.80;99.90;;;;;;5036949;28;20182;-86
2023/04/04 02:24:29;;;;;;;2.80;1.30;;;-0.80;99.90;;;;;;5036803;28;20189;-85
2023/04/04 02:26:57;;;;;;;2.37;1.30;;;-0.80;99.90;;;;;;5037025;28;20181;-86
2023/04/04 02:29:22;;;;;;;2.27;0.93;;;-0.80;99.90;;;;;;5054555;28;20173;-85
2023/04/04 02:31:48;;;;;;;2.87;1.63;;;-0.80;99.90;;;;;;5054675;28;20178;-85
2023/04/04 02:34:14;;;;;;;2.33;1.43;;;-0.80;99.90;;;;;;5049561;28;20229;-86
2023/04/04 02:36:39;;;;;;;3.30;1.30;;;-0.80;99.90;;;;;;5033408;28;20211;-86
2023/04/04 02:39:05;;;;;;;2.83;1.50;;;-0.90;99.90;;;;;;5034623;28;20162;-86
2023/04/04 02:41:31;;;;;;;3.30;1.50;;;-1.00;99.90;;;;;;5034535;28;20302;-86
2023/04/04 02:43:57;;;;;;;3.43;1.33;;;-0.90;99.90;;;;;;5034771;28;20579;-86
2023/04/04 02:46:22;;;;;;;4.13;1.63;;;-1.00;99.90;;;;;;5034423;28;20175;-86
2023/04/04 02:48:49;;;;;;;2.50;1.53;;;-1.00;99.90;;;;;;5033388;28;20170;-86
2023/04/04 02:51:15;;;;;;;5.40;2.03;;;-1.00;99.90;;;;;;5034135;28;20670;-86
2023/04/04 02:53:41;;;;;;;5.13;1.97;;;-1.00;99.90;;;;;;5034419;28;20198;-87
2023/04/04 02:56:07;;;;;;;4.33;1.60;;;-0.90;99.90;;;;;;5032844;28;20242;-86
2023/04/04 02:58:33;;;;;;;3.17;1.47;;;-1.00;99.90;;;;;;5034250;28;20513;-86
2023/04/04 03:00:58;;;;;;;3.00;1.53;;;-1.00;99.90;;;;;;5033962;28;20616;-87
2023/04/04 03:03:24;;;;;;;2.33;1.30;;;-1.00;99.90;;;;;;5034519;28;20628;-87
2023/04/04 03:05:50;;;;;;;2.80;1.33;;;-1.10;99.90;;;;;;5052720;28;20181;-87
2023/04/04 03:08:16;;;;;;;3.37;1.27;;;-1.20;99.90;;;;;;5054370;28;20166;-85
2023/04/04 03:10:45;;;;;;;5.20;1.60;;;-1.20;99.90;;;;;;5054236;28;20181;-86
2023/04/04 03:13:11;;;;;;;2.33;1.30;;;-1.20;99.90;;;;;;5054145;28;20169;-88
2023/04/04 03:15:37;;;;;;;3.53;1.73;;;-1.20;99.90;;;;;;5054099;28;20707;-87
2023/04/04 03:18:04;;;;;;;2.10;1.60;;;-1.10;99.90;;;;;;5036604;28;20170;-87
2023/04/04 03:20:30;;;;;;;2.70;1.30;;;-1.20;99.90;;;;;;5053853;28;20239;-86
2023/04/04 03:22:57;;;;;;;1.50;1.10;;;-1.20;99.90;;;;;;5053956;28;20165;-86
2023/04/04 03:25:23;;;;;;;5.40;1.47;;;-1.20;99.90;;;;;;5053916;28;20177;-87
2023/04/04 03:27:49;;;;;;;2.77;1.37;;;-1.20;99.90;;;;;;5053877;28;20212;-86
2023/04/04 03:30:14;;;;;;;4.47;1.43;;;-1.30;99.90;;;;;;5053457;28;20158;-86
2023/04/04 03:32:40;;;;;;;4.57;1.50;;;-1.20;99.90;;;;;;5053974;28;20178;-87
2023/04/04 03:35:06;;;;;;;3.43;1.57;;;-1.20;99.90;;;;;;5023414;28;20245;-87
2023/04/04 03:37:33;;;;;;;2.87;1.40;;;-1.20;99.90;;;;;;5032732;28;20183;-86
2023/04/04 03:39:58;;;;;;;3.60;1.23;;;-1.20;99.90;;;;;;5033921;28;20163;-86
2023/04/04 03:42:25;;;;;;;2.47;1.20;;;-1.30;99.90;;;;;;5033732;28;20223;-87
2023/04/04 03:44:52;;;;;;;4.90;1.43;;;-1.30;99.90;;;;;;5016419;28;20189;-86
2023/04/04 03:47:24;;;;;;;2.80;1.40;;;-1.40;99.90;;;;;;5033952;28;20171;-85
2023/04/04 03:49:51;;;;;;;2.77;1.37;;;-1.40;99.90;;;;;;5033893;28;20574;-87
2023/04/04 03:52:17;;;;;;;4.23;1.40;;;-1.40;99.90;;;;;;5033900;28;20517;-87
2023/04/04 03:54:43;;;;;;;2.50;1.20;;;-1.40;99.90;;;;;;5032573;28;20193;-86
2023/04/04 03:57:11;;;;;;;4.83;1.60;;;-1.40;99.90;;;;;;5033701;28;20295;-87
2023/04/04 03:59:37;;;;;;;2.33;1.30;;;-1.30;99.90;;;;;;5016449;28;20479;-87
2023/04/04 04:02:03;;;;;;;3.13;1.50;;;-1.30;99.90;;;;;;5015949;28;20233;-87
2023/04/04 04:04:29;;;;;;;2.17;1.30;;;-1.30;99.90;;;;;;5036175;28;20600;-86
2023/04/04 04:06:56;;;;;;;3.07;1.40;;;-1.40;99.90;;;;;;5033544;28;20523;-86
2023/04/04 04:09:22;;;;;;;3.47;1.57;;;-1.30;99.90;;;;;;5016057;28;20209;-85
2023/04/04 04:11:47;;;;;;;3.27;1.57;;;-1.40;99.90;;;;;;5033501;28;20175;-87
2023/04/04 04:14:13;;;;;;;6.77;1.50;;;-1.40;99.90;;;;;;5016108;28;20218;-86
2023/04/04 04:16:40;;;;;;;2.53;1.40;;;-1.50;99.90;;;;;;5033532;28;20582;-86
2023/04/04 04:19:06;;;;;;;4.20;1.97;;;-1.50;99.90;;;;;;5015997;28;20174;-87
2023/04/04 04:21:31;;;;;;;2.33;1.37;;;-1.50;99.90;;;;;;5033369;28;20221;-86
2023/04/04 04:23:57;;;;;;;3.27;1.80;;;-1.60;99.90;;;;;;5033712;28;20181;-86
2023/04/04 04:26:25;;;;;;;4.30;1.40;;;-1.50;99.90;;;;;;5033518;28;20179;-86
2023/04/04 04:28:50;;;;;;;1.57;1.17;;;-1.50;99.90;;;;;;5033686;28;20163;-87
2023/04/04 04:31:16;;;;;;;2.47;1.40;;;-1.60;99.90;;;;;;5033693;28;20514;-86
2023/04/04 04:33:42;;;;;;;2.10;1.30;;;-1.60;99.90;;;;;;5016527;28;20194;-87
2023/04/04 04:36:07;;;;;;;3.90;1.70;;;-1.60;99.90;;;;;;5072508;28;20216;-85
2023/04/04 04:38:34;;;;;;;2.70;1.40;;;-1.50;99.90;;;;;;5035354;28;20194;-86
2023/04/04 04:41:00;;;;;;;3.60;1.40;;;-1.60;99.90;;;;;;5054197;28;20228;-87
2023/04/04 04:43:26;;;;;;;3.37;1.53;;;-1.50;99.90;;;;;;5038871;28;20542;-86
2023/04/04 04:45:52;;;;;;;3.63;1.43;;;-1.60;99.90;;;;;;5049008;28;20183;-86
2023/04/04 04:48:18;;;;;;;2.10;1.30;;;-1.60;99.90;;;;;;5036610;28;20221;-87
2023/04/04 04:50:45;;;;;;;3.23;1.30;;;-1.70;99.90;;;;;;5036427;28;20166;-86
2023/04/04 04:53:12;;;;;;;3.13;1.60;;;-1.60;99.90;;;;;;5041943;28;20645;-85
2023/04/04 04:55:38;;;;;;;3.40;1.60;;;-1.60;99.90;;;;;;5036865;28;20198;-86
2023/04/04 04:58:05;;;;;;;3.63;1.27;;;-1.50;99.90;;;;;;5018912;28;20178;-86
2023/04/04 05:00:31;;;;;;;3.77;1.50;;;-1.50;99.90;;;;;;5018802;28;20223;-86
2023/04/04 05:02:59;;;;;;;4.23;1.57;;;-1.50;99.90;;;;;;5019026;28;20185;-87
2023/04/04 05:05:26;;;;;;;3.67;1.73;;;-1.40;99.90;;;;;;5032912;28;20189;-86
2023/04/04 05:07:51;;;;;;;1.93;1.50;;;-1.40;99.90;;;;;;5038060;28;20556;-86
2023/04/04 05:10:17;;;;;;;5.63;1.90;;;-1.40;99.90;;;;;;5038064;28;20192;-86
2023/04/04 05:12:44;;;;;;;5.57;1.77;;;-1.50;99.90;;;;;;5038178;28;20192;-87
2023/04/04 05:15:12;;;;;;;3.00;1.37;;;-1.50;99.90;;;;;;5055872;28;20260;-85
2023/04/04 05:17:39;;;;;;;1.90;1.30;;;-1.40;99.90;;;;;;5055740;28;20738;-86
2023/04/04 05:20:06;;;;;;;2.10;1.40;;;-1.50;99.90;;;;;;5037490;28;20260;-87
2023/04/04 05:22:32;;;;;;;4.17;1.67;;;-1.50;99.90;;;;;;5055643;28;20184;-86
2023/04/04 05:24:58;;;;;;;2.40;1.43;;;-1.50;99.90;;;;;;5055641;28;20671;-85
2023/04/04 05:27:23;;;;;;;2.73;1.50;;;-1.40;99.90;;;;;;5055631;28;20185;-86
2023/04/04 05:29:49;;;;;;;4.27;1.70;;;-1.30;99.90;;;;;;5055588;28;20236;-87
2023/04/04 05:32:15;;;;;;;2.93;1.70;;;-1.20;99.90;;;;;;5037433;28;20623;-85
2023/04/04 05:34:40;;;;;;;2.77;1.60;;;-1.20;99.90;;;;;;5055278;28;20233;-86
2023/04/04 05:37:06;;;;;;;3.10;1.30;;;-1.10;99.90;;;;;;5054643;28;20676;-86
2023/04/04 05:39:32;;;;;;;2.00;1.30;;;-1.10;99.90;;;;;;5037512;28;20185;-87
2023/04/04 05:41:58;;;;;;;2.20;1.40;;;-1.10;99.90;;;;;;5055156;28;20612;-86
2023/04/04 05:44:23;;;;;;;3.77;1.70;;;-1.20;99.90;;;;;;5037215;28;20568;-85
2023/04/04 05:46:50;;;;;;;4.70;1.50;;;-1.20;99.90;;;;;;5037134;28;20204;-86
2023/04/04 05:49:16;;;;;;;4.80;1.47;;;-1.20;99.90;;;;;;5037050;28;20174;-86
2023/04/04 05:51:41;;;;;;;4.07;1.70;;;-1.20;99.90;;;;;;5054290;28;20178;-86
2023/04/04 05:54:07;;;;;;;2.63;1.70;;;-1.20;99.90;;;;;;5037184;28;20185;-87
2023/04/04 05:56:33;;;;;;;4.50;1.70;;;-1.20;99.90;;;;;;5055049;28;20210;-86
2023/04/04 05:58:59;;;;;;;4.03;1.80;;;-1.20;99.90;;;;;;5037170;28;20182;-85
2023/04/04 06:01:26;;;;;;;5.97;1.90;;;-1.20;99.90;;;;;;5054857;28;20154;-87
2023/04/04 06:03:52;;;;;;;5.13;1.80;;;-1.10;99.90;;;;;;5037056;28;20217;-86
2023/04/04 06:06:17;;;;;;;2.77;1.73;;;-0.90;99.90;;;;;;5054562;28;20177;-86
2023/04/04 06:08:43;;;;;;;2.60;1.57;;;-0.70;99.90;;;;;;5036936;28;20268;-84
2023/04/04 06:11:09;;;;;;;4.93;1.53;;;-0.50;99.90;;;;;;5054796;28;20158;-86
2023/04/04 06:13:35;;;;;;;4.23;1.50;;;-0.30;99.90;;;;;;5036890;28;20262;-86
2023/04/04 06:16:01;;;;;;;2.50;1.70;;;-0.20;99.90;;;;;;5036757;28;20202;-85
2023/04/04 06:18:28;;;;;;;2.63;1.37;;;0.00;99.90;;;;;;5054708;28;20173;-85
2023/04/04 06:20:54;;;;;;;3.77;1.70;;;0.10;99.90;;;;;;5054191;28;20170;-85
2023/04/04 06:23:20;;;;;;;4.47;1.87;;;0.30;99.90;;;;;;5036544;28;20523;-86
2023/04/04 06:25:47;;;;;;;3.63;1.53;;;0.40;99.90;;;;;;5054430;28;20178;-84
2023/04/04 06:28:14;;;;;;;5.87;1.70;;;0.50;99.90;;;;;;5036148;28;20677;-86
2023/04/04 06:30:40;;;;;;;3.80;1.63;;;0.60;99.90;;;;;;5054073;28;20660;-85
2023/04/04 06:33:06;;;;;;;3.40;1.60;;;0.60;99.90;;;;;;5054276;28;20265;-86
2023/04/04 06:35:31;;;;;;;4.03;1.87;;;0.50;99.90;;;;;;5037977;28;20237;-86
2023/04/04 06:37:57;;;;;;;6.07;1.40;;;0.70;99.90;;;;;;5034399;28;20177;-86
2023/04/04 06:40:23;;;;;;;7.37;1.83;;;0.80;99.90;;;;;;5032992;28;20182;-84
2023/04/04 06:42:51;;;;;;;5.57;2.00;;;0.90;99.90;;;;;;5016653;28;20188;-86
2023/04/04 06:45:17;;;;;;;6.67;1.77;;;1.10;99.90;;;;;;5034424;28;20181;-86
2023/04/04 06:47:43;;;;;;;2.57;1.30;;;1.20;99.90;;;;;;5016492;28;20643;-88
2023/04/04 06:50:10;;;;;;;3.90;1.60;;;1.20;99.90;;;;;;5033988;28;20250;-86
2023/04/04 06:52:36;;;;;;;2.50;1.20;;;1.20;99.90;;;;;;5016379;28;20194;-87
2023/04/04 06:55:02;;;;;;;4.43;1.93;;;1.30;99.90;;;;;;5016669;28;20198;-88
2023/04/04 06:57:27;;;;;;;3.13;1.70;;;1.30;99.90;;;;;;5016573;28;20655;-89
2023/04/04 06:59:53;;;;;;;4.27;1.80;;;1.20;99.90;;;;;;5034046;28;20593;-88
2023/04/04 07:02:19;;;;;;;4.50;1.63;;;1.40;99.90;;;;;;5016322;28;20269;-87
2023/04/04 07:04:45;;;;;;;2.90;1.60;;;1.60;99.90;;;;;;5021477;28;20190;-86
2023/04/04 07:07:11;;;;;;;4.43;1.70;;;1.70;99.90;;;;;;5032662;28;20186;-89
2023/04/04 07:09:37;;;;;;;4.10;1.80;;;1.90;99.90;;;;;;5016055;28;20189;-90
2023/04/04 07:12:04;;;;;;;4.47;1.90;;;2.00;99.90;;;;;;5032825;28;20182;-87
2023/04/04 07:14:30;;;;;;;5.50;1.80;;;2.20;99.90;;;;;;5033033;28;20182;-89
2023/04/04 07:16:55;;;;;;;7.80;2.33;;;2.30;99.90;;;;;;5034063;28;20217;-88
2023/04/04 07:19:27;;;;;;;5.30;2.10;;;2.30;99.90;;;;;;5032830;28;20597;-88
2023/04/04 07:21:54;;;;;;;9.47;1.93;;;2.50;99.90;;;;;;5033690;28;20583;-89
2023/04/04 07:24:20;;;;;;;3.10;1.53;;;2.50;99.90;;;;;;5032758;28;20171;-86
2023/04/04 07:26:46;;;;;;;10.00;1.93;;;2.60;99.90;;;;;;5033008;28;20178;-88
2023/04/04 07:29:12;;;;;;;5.80;1.90;;;2.70;99.90;;;;;;5033984;28;20166;-87
2023/04/04 07:31:38;;;;;;;3.63;1.67;;;2.70;99.90;;;;;;5032835;28;20629;-87
2023/04/04 07:34:03;;;;;;;4.67;1.90;;;2.70;99.90;;;;;;5037055;28;20221;-86
2023/04/04 07:36:29;;;;;;;8.90;2.07;;;2.80;99.90;;;;;;5053148;28;20235;-86
2023/04/04 07:38:55;;;;;;;3.83;1.70;;;2.80;99.90;;;;;;5053620;28;20256;-86
2023/04/04 07:41:21;;;;;;;5.33;1.87;;;2.80;99.90;;;;;;5053497;28;20166;-86
2023/04/04 07:43:47;;;;;;;2.93;1.60;;;2.70;99.90;;;;;;5035311;28;20246;-85
2023/04/04 07:46:13;;;;;;;6.77;2.73;;;2.70;99.90;;;;;;5035629;28;20185;-85
2023/04/04 07:48:39;;;;;;;5.07;1.87;;;2.80;99.90;;;;;;5035507;28;20177;-86
2023/04/04 07:51:05;;;;;;;7.87;3.27;;;2.90;99.90;;;;;;5052988;28;20170;-86
2023/04/04 07:53:31;;;;;;;4.57;2.00;;;3.00;99.90;;;;;;5053189;28;20177;-84
2023/04/04 07:55:57;;;;;;;2.77;1.47;;;3.10;99.90;;;;;;5053295;28;20638;-85
2023/04/04 07:58:23;;;;;;;7.00;1.97;;;3.10;99.90;;;;;;5053341;28;20308;-84
2023/04/04 08:00:48;;;;;;;3.47;1.57;;;3.10;99.90;;;;;;5035118;28;20490;-84
2023/04/04 08:03:16;;;;;;;7.03;1.70;;;3.10;99.90;;;;;;5053308;28;20178;-84
2023/04/04 08:05:42;;;;;;;4.10;1.60;;;3.10;99.90;;;;;;5052969;28;20552;-85
2023/04/04 08:08:07;;;;;;;3.67;1.50;;;3.20;99.90;;;;;;5053168;28;20166;-84
2023/04/04 08:10:33;;;;;;;3.37;1.70;;;3.30;99.90;;;;;;5053061;28;20490;-85
2023/04/04 08:12:59;;;;;;;2.67;1.03;;;3.40;99.90;;;;;;5053093;28;20187;-84
2023/04/04 08:15:25;;;;;;;3.57;1.30;;;3.50;99.90;;;;;;5054704;28;20174;-83
2023/04/04 08:17:50;;;;;;;5.73;1.40;;;3.60;99.90;;;;;;5056857;28;20182;-84
2023/04/04 08:20:16;;;;;;;4.33;1.20;;;3.60;99.90;;;;;;5056651;28;20196;-84
2023/04/04 08:22:42;;;;;;;2.43;0.90;;;3.70;99.90;;;;;;5056562;28;20205;-84
2023/04/04 08:25:09;;;;;;;4.37;1.23;;;3.80;99.90;;;;;;5057386;28;20569;-84
2023/04/04 08:27:37;;;;;;;5.33;1.10;;;3.90;99.90;;;;;;5039288;28;20174;-85
2023/04/04 08:30:04;;;;;;;3.63;1.20;;;4.00;99.90;;;;;;5056629;28;20181;-84
2023/04/04 08:32:30;;;;;;;2.80;1.10;;;4.20;99.90;;;;;;5056673;28;20177;-84
2023/04/04 08:34:56;;;;;;;5.87;1.27;;;4.30;99.90;;;;;;5056558;28;20229;-84
2023/04/04 08:37:22;;;;;;;2.30;1.53;;;4.40;99.90;;;;;;5056330;28;20212;-84
2023/04/04 08:39:48;;;;;;;3.67;0.80;;;4.50;99.00;;;;;;5056426;28;20178;-85
2023/04/04 08:42:16;;;;;;;0.77;0.50;;;4.40;99.90;;;;;;5056406;28;20166;-84
2023/04/04 08:44:44;;;;;;;2.70;0.73;;;4.50;97.80;;;;;;5055996;28;20170;-85
2023/04/04 08:47:12;;;;;;;3.57;0.87;;;4.30;95.50;;;;;;5056487;28;20279;-84
2023/04/04 08:49:42;;;;;;;3.43;0.70;;;4.40;99.40;;;;;;5038448;28;20182;-84
2023/04/04 08:52:11;;;;;;;2.13;0.80;;;4.60;99.90;;;;;;5055960;28;20617;-85
2023/04/04 08:54:39;;;;;;;1.53;0.80;;;4.70;98.60;;;;;;5056307;28;20694;-84
2023/04/04 08:57:07;;;;;;;4.80;1.10;;;5.00;98.00;;;;;;5056094;28;20308;-84
2023/04/04 08:59:33;;;;;;;2.63;0.77;;;5.10;97.90;;;;;;5056200;28;20177;-84
2023/04/04 09:02:18;;;;;;;2.07;0.97;;;5.00;95.40;;;;;;5056089;28;20511;-84
2023/04/04 09:04:47;;;;;;;2.40;0.77;;;4.80;96.80;;;;;;5055880;28;20211;-87
2023/04/04 09:07:14;;;;;;;1.07;0.70;;;4.80;98.60;;;;;;5055981;28;20170;-85
2023/04/04 09:09:44;;;;;;;2.73;0.90;;;5.00;98.30;;;;;;5056130;28;20186;-84
2023/04/04 09:12:15;;;;;;;2.77;0.80;;;5.10;97.90;;;;;;5037949;28;20519;-82
2023/04/04 09:14:42;;;;;;;2.93;1.03;;;5.20;99.00;;;;;;5038183;28;20174;-85
2023/04/04 09:17:09;;;;;;;3.40;0.90;;;5.30;98.50;;;;;;5037836;28;20376;-84
2023/04/04 09:19:36;;;;;;;2.33;0.93;;;5.40;98.30;;;;;;5055851;28;20170;-84
2023/04/04 09:22:05;;;;;;;2.90;0.87;;;5.40;96.70;;;;;;5037577;28;20181;-85
2023/04/04 09:24:43;;;;;;;3.73;1.23;;;5.20;95.90;;;;;;5055839;28;20170;-86
2023/04/04 09:27:11;;;;;;;3.97;1.23;;;4.90;96.70;;;;;;5055021;28;20592;-85
2023/04/04 09:29:38;;;;;;;1.63;0.70;;;4.60;95.20;;;;;;5055651;28;20174;-85
2023/04/04 09:32:07;;;;;;;2.27;1.10;;;4.60;95.90;;;;;;5055430;28;20173;-85
2023/04/04 09:34:33;;;;;;;2.07;0.87;;;4.50;95.90;;;;;;5055309;28;20282;-86
2023/04/04 09:36:59;;;;;;;3.70;0.93;;;4.40;95.40;;;;;;5037335;28;20292;-85
2023/04/04 09:39:25;;;;;;;1.97;0.70;;;4.20;96.60;;;;;;5055428;28;20277;-85
2023/04/04 09:41:52;;;;;;;1.80;1.00;;;4.10;96.50;;;;;;5055208;28;20162;-85
2023/04/04 09:44:17;;;;;;;3.17;1.10;;;3.90;98.20;;;;;;5037020;28;20170;-86
2023/04/04 09:46:44;;;;;;;3.80;1.10;;;4.00;98.10;;;;;;5037564;28;20184;-83
2023/04/04 09:49:17;;;;;;;2.93;1.00;;;4.20;98.40;;;;;;5037403;28;20186;-85
2023/04/04 09:51:48;;;;;;;3.00;1.10;;;4.40;98.70;;;;;;5054818;28;20163;-85
2023/04/04 09:54:20;;;;;;;3.83;1.00;;;4.60;98.80;;;;;;5055242;28;20654;-84
2023/04/04 09:56:47;;;;;;;3.27;1.33;;;4.60;96.60;;;;;;5055012;28;20272;-85
2023/04/04 09:59:14;;;;;;;3.03;0.90;;;4.60;96.80;;;;;;5055221;28;20177;-84
2023/04/04 10:01:39;;;;;;;2.80;0.80;;;4.80;97.90;;;;;;5036948;28;20185;-85
2023/04/04 10:04:07;;;;;;;3.03;1.00;;;4.80;98.60;;;;;;5054975;28;20174;-85
2023/04/04 10:06:35;;;;;;;2.10;0.80;;;5.00;98.50;;;;;;5055101;28;20261;-84
2023/04/04 10:09:02;;;;;;;2.47;0.90;;;5.30;98.20;;;;;;5036757;28;20624;-85
2023/04/04 10:11:33;;;;;;;1.87;1.10;;;5.40;97.00;;;;;;5036970;28;20177;-83
2023/04/04 10:14:02;;;;;;;2.80;0.90;;;5.40;96.80;;;;;;5054819;28;20185;-85
2023/04/04 10:16:32;;;;;;;2.40;0.80;;;5.50;97.40;;;;;;5054725;28;20209;-85
2023/04/04 10:19:00;;;;;;;1.07;0.77;;;5.50;94.70;;;;;;5054675;28;20174;-85
2023/04/04 10:21:26;;;;;;;4.83;0.93;;;5.80;97.90;;;;;;5054241;28;20212;-84
2023/04/04 10:23:55;;;;;;;3.27;0.93;;;5.80;97.10;;;;;;5036627;28;20213;-85
2023/04/04 10:26:21;;;;;;;2.67;0.80;;;6.00;98.40;;;;;;5054546;28;20604;-86
2023/04/04 10:28:47;;;;;;;4.53;1.03;;;6.10;95.10;;;;;;5054494;28;20174;-85
2023/04/04 10:31:24;;;;;;;1.67;0.80;;;6.10;92.90;;;;;;5036887;28;20239;-85
2023/04/04 10:34:12;;;;;;;2.20;1.00;;;6.20;95.50;;;;;;5054278;28;20192;-84
2023/04/04 10:36:46;;;;;;;3.90;0.90;;;6.30;94.30;;;;;;5053896;28;20271;-85
2023/04/04 10:39:23;;;;;;;1.30;0.77;;;6.20;94.30;;;;;;5036205;28;20664;-85
2023/04/04 10:41:51;;;;;;;1.90;0.87;;;6.20;95.10;;;;;;5054129;28;20502;-84
2023/04/04 10:44:37;;;;;;;1.90;0.80;;;6.40;95.20;;;;;;5035846;28;20543;-84
2023/04/04 10:47:13;;;;;;;2.37;1.00;;;6.50;95.40;;;;;;5053981;28;20675;-84
2023/04/04 10:49:41;;;;;;;4.10;1.00;;;6.40;93.60;;;;;;5035996;28;20177;-84
2023/04/04 10:52:08;;;;;;;2.70;0.90;;;6.40;94.60;;;;;;5053520;28;20245;-85
2023/04/04 10:54:34;;;;;;;1.90;1.00;;;6.60;95.60;;;;;;5053937;28;20178;-84
2023/04/04 10:57:00;;;;;;;2.10;1.17;;;6.60;93.90;;;;;;5053587;28;20652;-84
2023/04/04 10:59:26;;;;;;;1.87;0.90;;;6.70;94.00;;;;;;5053544;28;20170;-84
2023/04/04 11:02:00;;;;;;;2.27;0.90;;;6.60;91.50;;;;;;5035949;28;20256;-84
2023/04/04 11:04:34;;;;;;;1.43;0.70;;;6.60;91.70;;;;;;5053789;28;20664;-85
2023/04/04 11:07:05;;;;;;;2.10;0.83;;;6.60;92.40;;;;;;5035534;28;20265;-85
2023/04/04 11:09:53;;;;;;;1.93;0.80;;;6.40;91.00;;;;;;5054148;28;20253;-84
2023/04/04 11:12:30;;;;;;;2.50;0.80;;;6.60;92.30;;;;;;5035603;28;20184;-85
2023/04/04 11:15:02;;;;;;;2.27;0.97;;;6.60;90.70;;;;;;5053760;28;20170;-84
2023/04/04 11:17:56;;;;;;;1.83;0.83;;;6.70;93.30;;;;;;5035724;28;20660;-83
2023/04/04 11:20:30;;;;;;;5.33;0.70;;;6.70;88.90;;;;;;5035719;28;20256;-84
2023/04/04 11:23:07;;;;;;;1.97;0.70;;;6.80;90.70;;;;;;5053646;28;20623;-84
2023/04/04 11:25:35;;;;;;;2.03;0.80;;;6.80;91.60;;;;;;5053468;28;20165;-84
2023/04/04 11:28:32;;;;;;;1.33;0.90;;;6.70;90.40;;;;;;5035976;28;20177;-85
2023/04/04 11:31:17;;;;;;;3.90;0.97;;;6.50;87.80;;;;;;5047249;28;20189;-85
2023/04/04 11:34:06;;;;;;;2.50;0.83;;;6.60;92.40;;;;;;5053108;28;20507;-84
2023/04/04 11:36:35;;;;;;;3.63;1.10;;;6.90;92.70;;;;;;5053084;28;20540;-84
2023/04/04 11:39:19;;;;;;;2.70;0.90;;;7.20;92.40;;;;;;5053253;28;20224;-85
2023/04/04 11:41:50;;;;;;;1.10;0.70;;;7.30;91.70;;;;;;5053179;28;20667;-84
2023/04/04 11:44:16;;;;;;;1.73;0.90;;;7.40;90.80;;;;;;5035581;28;20193;-84
2023/04/04 11:46:42;;;;;;;1.97;0.70;;;7.60;90.10;;;;;;5035599;28;20265;-84
2023/04/04 11:49:09;;;;;;;3.83;0.77;;;7.60;90.60;;;;;;5053196;28;20178;-84
2023/04/04 11:51:38;;;;;;;2.87;0.83;;;7.80;90.40;;;;;;5038920;28;20174;-84
2023/04/04 11:54:05;;;;;;;1.77;0.77;;;7.80;89.50;;;;;;5057417;28;20162;-84
2023/04/04 11:56:35;;;;;;;1.13;0.67;;;7.90;91.00;;;;;;5039171;28;20555;-85
2023/04/04 11:59:04;;;;;;;1.70;0.93;;;7.60;87.10;;;;;;5039293;28;20185;-85
2023/04/04 12:01:30;;;;;;;2.53;0.67;;;7.70;90.00;;;;;;5057123;28;20170;-84
2023/04/04 12:03:59;;;;;;;2.40;0.70;;;7.70;90.80;;;;;;5057106;28;20173;-84
2023/04/04 12:06:28;;;;;;;1.97;0.80;;;7.80;91.00;;;;;;5039072;28;20185;-84
2023/04/04 12:08:54;;;;;;;2.27;0.80;;;7.80;90.30;;;;;;5039202;28;20181;-84
2023/04/04 12:11:21;;;;;;;2.10;1.00;;;8.00;90.20;;;;;;5039056;28;20185;-84
2023/04/04 12:13:49;;;;;;;1.63;0.87;;;8.20;92.50;;;;;;5039248;28;20193;-84
2023/04/04 12:16:18;;;;;;;1.37;0.80;;;8.50;90.70;;;;;;5056922;28;20217;-85
2023/04/04 12:18:45;;;;;;;2.13;0.93;;;8.50;85.80;;;;;;5056188;28;20166;-84
2023/04/04 12:21:11;;;;;;;2.30;0.77;;;8.40;86.50;;;;;;5036748;28;20177;-84
2023/04/04 12:23:36;;;;;;;2.93;0.70;;;8.30;83.70;;;;;;5056043;28;20511;-85
2023/04/04 12:26:05;;;;;;;1.43;0.77;;;7.90;82.20;;;;;;5056546;28;20639;-85
2023/04/04 12:28:33;;;;;;;1.37;0.70;;;8.00;82.50;;;;;;5038682;28;20533;-85
2023/04/04 12:31:04;;;;;;;1.50;0.70;;;8.20;84.00;;;;;;5055964;28;20204;-84
2023/04/04 12:33:34;;;;;;;3.77;1.00;;;8.20;85.20;;;;;;5056273;28;20159;-86
2023/04/04 12:36:02;;;;;;;2.87;1.20;;;8.20;83.70;;;;;;5056540;28;20210;-84
2023/04/04 12:38:29;;;;;;;1.80;0.90;;;8.20;83.80;;;;;;5056498;28;20204;-85
2023/04/04 12:40:55;;;;;;;1.90;0.80;;;8.10;87.90;;;;;;5056677;28;20166;-84
2023/04/04 12:43:21;;;;;;;4.90;1.00;;;8.20;88.60;;;;;;5038489;28;20280;-84
2023/04/04 12:45:50;;;;;;;3.43;0.90;;;8.30;82.80;;;;;;5056485;28;20623;-86
2023/04/04 12:48:20;;;;;;;1.70;1.00;;;8.60;86.90;;;;;;5056402;28;20222;-85
2023/04/04 12:50:57;;;;;;;1.73;0.97;;;8.80;81.70;;;;;;5056342;28;20169;-83
2023/04/04 12:53:27;;;;;;;2.93;0.60;;;8.70;78.80;;;;;;5056062;28;20620;-84
2023/04/04 12:55:54;;;;;;;2.67;0.80;;;8.70;78.80;;;;;;5056202;28;20240;-84
2023/04/04 12:58:24;;;;;;;1.87;0.60;;;8.90;79.60;;;;;;5038226;28;20178;-85